Time;durP1;ratioP1;P1;durP2;ratioP2;P2;SDS_P1;SDS_P2;PMS_P1;PMS_P2;Temp;Humidity;BMP_temperature;BMP_pressure;BME280_temperature;BME280_humidity;BME280_pressure;Samples;Min_cycle;Max_cycle;Signal;HPM_P1;HPM_P2
2023/03/14 00:01:52;;;;;;;26.40;4.30;;;;;;;;;;5080617;28;20082;-87
2023/03/14 00:04:37;;;;;;;24.52;5.82;;;;;;;;;;5052643;28;20091;-86
2023/03/14 00:07:24;;;;;;;21.38;4.40;;;;;;;;;;5051511;28;20091;-87
2023/03/14 00:10:13;;;;;;;29.02;5.43;;;9.90;99.90;;;;;;5080066;28;20087;-87
2023/03/14 00:12:57;;;;;;;26.63;4.97;;;;;;;;;;5052990;28;20540;-87
2023/03/14 00:15:42;;;;;;;21.10;4.75;;;;;;;;;;5072765;28;20048;-86
2023/03/14 00:18:26;;;;;;;22.88;4.40;;;;;;;;;;5079688;28;20052;-87
2023/03/14 00:21:11;;;;;;;21.95;4.32;;;;;;;;;;5053059;28;20120;-86
2023/03/14 00:23:56;;;;;;;22.52;5.00;;;;;;;;;;5080099;28;20060;-86
2023/03/14 00:26:40;;;;;;;25.48;5.55;;;;;;;;;;5079848;28;20044;-86
2023/03/14 00:29:25;;;;;;;22.60;4.15;;;;;;;;;;5079511;28;20032;-87
2023/03/14 00:32:10;;;;;;;17.95;4.47;;;;;;;;;;5051566;28;20067;-86
2023/03/14 00:34:54;;;;;;;22.83;4.30;;;;;;;;;;5051625;28;20048;-86
2023/03/14 00:37:39;;;;;;;21.13;3.50;;;;;;;;;;5051947;28;20190;-86
2023/03/14 00:40:23;;;;;;;18.52;4.13;;;;;;;;;;5065439;28;20044;-86
2023/03/14 00:43:08;;;;;;;19.95;4.78;;;;;;;;;;5051687;28;20044;-87
2023/03/14 00:45:53;;;;;;;15.00;4.35;;;;;;;;;;5077656;28;20060;-85
2023/03/14 00:48:38;;;;;;;22.75;4.00;;;;;;;;;;5051784;28;20441;-87
2023/03/14 00:51:22;;;;;;;19.52;4.07;;;;;;;;;;5051917;28;20211;-87
2023/03/14 00:54:07;;;;;;;22.13;3.75;;;;;;;;;;5051415;28;20036;-87
2023/03/14 00:56:51;;;;;;;26.10;3.72;;;;;;;;;;5064868;28;20499;-87
2023/03/14 00:59:36;;;;;;;15.55;3.95;;;;;;;;;;5051502;28;20043;-87
2023/03/14 01:02:20;;;;;;;22.25;5.05;;;;;;;;;;5025608;28;20116;-87
2023/03/14 01:05:05;;;;;;;22.88;4.30;;;10.60;99.90;;;;;;5052109;28;20492;-87
2023/03/14 01:07:49;;;;;;;17.55;4.13;;;;;;;;;;5051506;28;20051;-87
2023/03/14 01:10:37;;;;;;;19.58;4.50;;;10.60;99.90;;;;;;5078813;28;20408;-86
2023/03/14 01:13:22;;;;;;;20.50;3.90;;;;;;;;;;5051466;28;20068;-88
2023/03/14 01:16:09;;;;;;;18.85;4.68;;;10.60;99.90;;;;;;5051989;28;20060;-86
2023/03/14 01:18:53;;;;;;;22.85;4.30;;;;;;;;;;5078979;28;20032;-89
2023/03/14 01:21:38;;;;;;;17.95;3.88;;;;;;;;;;5051595;28;20487;-87
2023/03/14 01:24:23;;;;;;;19.63;3.70;;;;;;;;;;5051693;28;20389;-87
2023/03/14 01:27:07;;;;;;;22.90;4.20;;;;;;;;;;5050714;28;20087;-87
2023/03/14 01:29:52;;;;;;;13.57;4.28;;;;;;;;;;5051423;28;20595;-87
2023/03/14 01:32:37;;;;;;;16.05;3.38;;;;;;;;;;5050870;28;20219;-88
2023/03/14 01:35:21;;;;;;;14.75;4.28;;;;;;;;;;5050868;28;20134;-87
2023/03/14 01:38:06;;;;;;;14.88;3.13;;;;;;;;;;5039363;28;20495;-87
2023/03/14 01:40:50;;;;;;;16.52;4.43;;;;;;;;;;5076914;28;20076;-88
2023/03/14 01:43:35;;;;;;;16.00;3.50;;;;;;;;;;5050866;28;20036;-88
2023/03/14 01:46:28;;;;;;;16.42;4.10;;;10.80;99.90;;;;;;5050434;28;20039;-88
2023/03/14 01:49:24;;;;;;;14.77;3.83;;;10.80;99.90;;;;;;5051504;28;20071;-88
2023/03/14 01:52:22;;;;;;;17.38;3.97;;;10.70;99.90;;;;;;5050705;28;20134;-87
2023/03/14 01:55:10;;;;;;;16.23;2.75;;;10.70;99.90;;;;;;5079288;28;20508;-87
2023/03/14 01:58:03;;;;;;;15.25;3.33;;;10.70;99.90;;;;;;5050566;28;20263;-88
2023/03/14 02:00:47;;;;;;;17.73;4.10;;;;;;;;;;5078496;28;20044;-87
2023/03/14 02:03:37;;;;;;;13.65;3.30;;;10.60;99.90;;;;;;5050600;28;20087;-89
2023/03/14 02:06:27;;;;;;;18.83;3.22;;;10.60;99.90;;;;;;5051480;28;20432;-88
2023/03/14 02:09:11;;;;;;;18.00;3.70;;;;;;;;;;5081274;28;20036;-87
2023/03/14 02:11:56;;;;;;;12.80;3.08;;;;;;;;;;5068152;28;20051;-88
2023/03/14 02:14:46;;;;;;;18.40;4.03;;;;;;;;;;5081789;28;20064;-87
2023/03/14 02:17:31;;;;;;;10.75;3.58;;;;;;;;;;5055370;28;20040;-88
2023/03/14 02:20:24;;;;;;;12.45;2.60;;;10.50;99.90;;;;;;5082446;28;20044;-88
2023/03/14 02:23:09;;;;;;;14.67;2.87;;;;;;;;;;5055113;28;20059;-88
2023/03/14 02:26:03;;;;;;;12.20;2.67;;;10.50;99.90;;;;;;5067836;28;20405;-87
2023/03/14 02:28:48;;;;;;;;;;;10.50;99.90;;;;;;5054608;28;20443;-87
2023/03/14 02:31:34;;;;;;;11.65;2.35;;;;;;;;;;5053749;28;20398;-88
2023/03/14 02:34:18;;;;;;;15.68;3.08;;;;;;;;;;5054952;28;20056;-87
2023/03/14 02:37:03;;;;;;;12.18;3.05;;;;;;;;;;5081704;28;20554;-87
2023/03/14 02:39:49;;;;;;;8.57;2.80;;;;;;;;;;5067639;28;20047;-87
2023/03/14 02:42:33;;;;;;;14.55;2.80;;;;;;;;;;5054567;28;20116;-87
2023/03/14 02:45:18;;;;;;;12.70;3.47;;;;;;;;;;5053386;28;20515;-88
2023/03/14 02:48:08;;;;;;;11.40;2.10;;;10.30;99.90;;;;;;5081598;28;20495;-87
2023/03/14 02:50:56;;;;;;;14.32;2.33;;;10.30;99.90;;;;;;5053743;28;20040;-87
2023/03/14 02:53:42;;;;;;;12.50;2.08;;;;;;;;;;5082012;28;20062;-87
2023/03/14 02:56:27;;;;;;;12.18;3.40;;;;;;;;;;5054499;28;20068;-88
2023/03/14 02:59:11;;;;;;;12.98;2.53;;;;;;;;;;5054297;28;20078;-88
2023/03/14 03:01:56;;;;;;;9.68;2.72;;;;;;;;;;5053822;28;20075;-87
2023/03/14 03:04:40;;;;;;;6.95;2.00;;;;;;;;;;5067576;28;20033;-87
2023/03/14 03:07:25;;;;;;;8.95;2.70;;;;;;;;;;5081618;28;20087;-87
2023/03/14 03:10:09;;;;;;;20.70;4.50;;;10.20;99.90;;;;;;5067241;28;20048;-87
2023/03/14 03:12:54;;;;;;;13.93;4.10;;;;;;;;;;5052896;28;20091;-87
2023/03/14 03:15:39;;;;;;;15.07;4.53;;;;;;;;;;5067439;28;20076;-87
2023/03/14 03:18:24;;;;;;;18.67;4.63;;;;;;;;;;5081644;28;20071;-87
2023/03/14 03:21:09;;;;;;;17.33;5.45;;;;;;;;;;5053087;28;20504;-87
2023/03/14 03:23:54;;;;;;;16.10;5.43;;;;;;;;;;5052539;28;20397;-87
2023/03/14 03:26:38;;;;;;;15.02;3.97;;;;;;;;;;5081243;28;20036;-87
2023/03/14 03:29:23;;;;;;;17.45;4.75;;;;;;;;;;5074905;28;20052;-88
2023/03/14 03:32:07;;;;;;;13.45;3.95;;;;;;;;;;5066480;28;20099;-87
2023/03/14 03:34:52;;;;;;;12.40;4.07;;;;;;;;;;5080763;28;20079;-87
2023/03/14 03:37:36;;;;;;;19.55;5.15;;;;;;;;;;5053570;28;20040;-87
2023/03/14 03:40:21;;;;;;;20.20;4.15;;;;;;;;;;5053882;28;20542;-87
2023/03/14 03:43:06;;;;;;;17.60;3.75;;;;;;;;;;5069291;28;20087;-87
2023/03/14 03:45:50;;;;;;;16.33;4.88;;;;;;;;;;5066399;28;20040;-87
2023/03/14 03:48:38;;;;;;;22.85;4.50;;;;;;;;;;5052104;28;20044;-87
2023/03/14 03:51:23;;;;;;;14.68;4.50;;;;;;;;;;5080951;28;20538;-88
2023/03/14 03:54:08;;;;;;;18.38;4.72;;;;;;;;;;5052719;28;20405;-88
2023/03/14 03:56:52;;;;;;;13.05;4.70;;;;;;;;;;5052820;28;20099;-88
2023/03/14 03:59:39;;;;;;;11.85;4.57;;;;;;;;;;5053258;28;20078;-87
2023/03/14 04:02:24;;;;;;;17.13;5.05;;;;;;;;;;5080654;28;20047;-87
2023/03/14 04:05:11;;;;;;;22.70;5.85;;;9.30;99.90;;;;;;5042868;28;20043;-87
2023/03/14 04:07:56;;;;;;;17.50;5.38;;;;;;;;;;5051569;28;20082;-87
2023/03/14 04:10:41;;;;;;;21.17;6.57;;;;;;;;;;5053088;28;20462;-87
2023/03/14 04:13:26;;;;;;;12.75;5.43;;;;;;;;;;5074325;28;20052;-87
2023/03/14 04:16:16;;;;;;;15.93;6.13;;;9.30;99.90;;;;;;5051262;28;20090;-87
2023/03/14 04:19:01;;;;;;;21.02;6.65;;;;;;;;;;5080002;28;20087;-87
2023/03/14 04:21:46;;;;;;;18.20;7.40;;;;;;;;;;5052936;28;20051;-87
2023/03/14 04:24:31;;;;;;;12.75;5.30;;;;;;;;;;5051680;28;20036;-87
2023/03/14 04:27:15;;;;;;;19.00;6.20;;;;;;;;;;5050984;28;20048;-87
2023/03/14 04:30:00;;;;;;;13.40;5.88;;;;;;;;;;5050913;28;20118;-86
2023/03/14 04:32:44;;;;;;;15.05;5.75;;;;;;;;;;5079703;28;20060;-88
2023/03/14 04:35:31;;;;;;;20.85;5.90;;;9.10;99.90;;;;;;5080070;28;20039;-88
2023/03/14 04:38:16;;;;;;;11.75;4.47;;;;;;;;;;5050753;28;20095;-88
2023/03/14 04:41:00;;;;;;;17.13;5.57;;;;;;;;;;5079511;28;20043;-88
2023/03/14 04:43:45;;;;;;;13.77;5.28;;;;;;;;;;5052560;28;20078;-87
2023/03/14 04:46:30;;;;;;;11.27;4.53;;;;;;;;;;5079551;28;20044;-87
2023/03/14 04:49:14;;;;;;;13.15;4.32;;;;;;;;;;5079211;28;20102;-88
2023/03/14 04:52:02;;;;;;;17.92;4.60;;;9.00;99.90;;;;;;5079419;28;20124;-88
2023/03/14 04:54:46;;;;;;;15.18;4.15;;;;;;;;;;5051279;28;20043;-88
2023/03/14 04:57:31;;;;;;;13.30;5.18;;;;;;;;;;5079451;28;20559;-87
2023/03/14 05:00:18;;;;;;;14.15;4.57;;;;;;;;;;5051484;28;20405;-87
2023/03/14 05:03:02;;;;;;;12.93;4.38;;;;;;;;;;5079307;28;20075;-87
2023/03/14 05:05:47;;;;;;;13.05;5.00;;;;;;;;;;5051176;28;20040;-87
2023/03/14 05:08:31;;;;;;;10.88;4.43;;;;;;;;;;5079936;28;20436;-87
2023/03/14 05:11:16;;;;;;;12.63;4.72;;;;;;;;;;5078566;28;20039;-87
2023/03/14 05:14:00;;;;;;;15.60;4.85;;;;;;;;;;5036790;28;20154;-89
2023/03/14 05:16:45;;;;;;;17.13;5.30;;;;;;;;;;5051875;28;20043;-88
2023/03/14 05:19:30;;;;;;;15.98;5.10;;;;;;;;;;5050819;28;20043;-87
2023/03/14 05:22:15;;;;;;;16.23;5.68;;;;;;;;;;5051401;28;20044;-87
2023/03/14 05:24:59;;;;;;;16.05;5.20;;;;;;;;;;5079301;28;20075;-87
2023/03/14 05:27:44;;;;;;;16.23;5.05;;;;;;;;;;5079223;28;20091;-88
2023/03/14 05:30:30;;;;;;;14.32;5.93;;;;;;;;;;5079268;28;20188;-87
2023/03/14 05:33:15;;;;;;;16.30;5.85;;;;;;;;;;5052270;28;20040;-88
2023/03/14 05:35:59;;;;;;;11.07;5.30;;;;;;;;;;5079363;28;20040;-87
2023/03/14 05:38:44;;;;;;;14.07;4.50;;;;;;;;;;5051384;28;20036;-86
2023/03/14 05:41:29;;;;;;;16.70;5.90;;;;;;;;;;5077861;28;20091;-88
2023/03/14 05:44:13;;;;;;;17.95;5.80;;;;;;;;;;5082885;28;20409;-88
2023/03/14 05:46:58;;;;;;;18.15;6.38;;;;;;;;;;5083182;28;20032;-89
2023/03/14 05:49:42;;;;;;;20.45;6.97;;;;;;;;;;5081800;28;20117;-85
2023/03/14 05:52:27;;;;;;;20.95;6.63;;;;;;;;;;5054501;28;20443;-88
2023/03/14 05:55:11;;;;;;;18.85;6.28;;;;;;;;;;5055070;28;20397;-88
2023/03/14 05:57:56;;;;;;;20.83;6.28;;;;;;;;;;5083040;28;20036;-87
2023/03/14 06:00:40;;;;;;;16.63;6.32;;;;;;;;;;5054876;28;20401;-88
2023/03/14 06:03:24;;;;;;;13.77;6.25;;;;;;;;;;5068613;28;20087;-87
2023/03/14 06:06:09;;;;;;;16.65;6.55;;;;;;;;;;5082765;28;20043;-88
2023/03/14 06:08:53;;;;;;;16.85;5.68;;;;;;;;;;5069131;28;20436;-87
2023/03/14 06:11:38;;;;;;;18.75;6.78;;;;;;;;;;5068967;28;20048;-87
2023/03/14 06:14:23;;;;;;;18.08;6.00;;;;;;;;;;5066942;28;20075;-88
2023/03/14 06:17:07;;;;;;;15.65;5.30;;;;;;;;;;5074607;28;20043;-87
2023/03/14 06:19:52;;;;;;;16.42;6.13;;;;;;;;;;5068901;28;20032;-87
2023/03/14 06:22:36;;;;;;;13.48;5.72;;;;;;;;;;5070639;28;20052;-88
2023/03/14 06:25:21;;;;;;;10.40;4.50;;;;;;;;;;5048882;28;20035;-88
2023/03/14 06:28:05;;;;;;;12.48;4.80;;;;;;;;;;5051558;28;20036;-88
2023/03/14 06:30:50;;;;;;;10.55;5.05;;;;;;;;;;5050398;28;20040;-89
2023/03/14 06:33:35;;;;;;;15.30;5.75;;;;;;;;;;5048914;28;20396;-90
2023/03/14 06:36:22;;;;;;;13.25;4.97;;;8.90;99.90;;;;;;5053129;28;20035;-88
2023/03/14 06:39:06;;;;;;;13.95;6.20;;;;;;;;;;5082375;28;20185;-89
2023/03/14 06:41:51;;;;;;;12.40;4.70;;;;;;;;;;5053383;28;20044;-88
2023/03/14 06:44:35;;;;;;;14.35;6.90;;;;;;;;;;5060860;28;20079;-88
2023/03/14 06:47:20;;;;;;;12.10;5.38;;;;;;;;;;5053408;28;20405;-88
2023/03/14 06:50:06;;;;;;;14.43;4.85;;;9.30;99.90;;;;;;5051985;28;20493;-89
2023/03/14 06:52:51;;;;;;;9.00;5.13;;;;;;;;;;5041838;28;20441;-88
2023/03/14 06:55:35;;;;;;;12.10;5.20;;;;;;;;;;5080895;28;20036;-88
2023/03/14 06:58:20;;;;;;;16.17;6.03;;;;;;;;;;5067790;28;20048;-87
2023/03/14 07:01:04;;;;;;;14.75;5.93;;;8.90;99.90;;;;;;5067239;28;20409;-86
2023/03/14 07:03:48;;;;;;;11.23;3.17;;;;;;;;;;5033678;28;20083;-86
2023/03/14 07:06:33;;;;;;;8.18;1.80;;;8.60;99.90;;;;;;5069333;28;20052;-87
2023/03/14 07:09:18;;;;;;;4.95;1.15;;;;;;;;;;5067266;28;20079;-86
2023/03/14 07:12:04;;;;;;;11.75;1.58;;;;;;;;;;5082035;28;20043;-87
2023/03/14 07:14:48;;;;;;;7.43;2.08;;;;;;;;;;5054305;28;20405;-88
2023/03/14 07:17:33;;;;;;;8.32;1.77;;;;;;;;;;5081150;28;20094;-88
2023/03/14 07:20:17;;;;;;;14.85;2.65;;;;;;;;;;5081763;28;20036;-88
2023/03/14 07:23:03;;;;;;;13.40;2.50;;;;;;;;;;5081370;28;20155;-88
2023/03/14 07:25:47;;;;;;;14.27;1.80;;;;;;;;;;5052585;28;20040;-90
2023/03/14 07:28:32;;;;;;;11.50;1.30;;;;;;;;;;5051766;28;20040;-88
2023/03/14 07:31:16;;;;;;;12.35;1.67;;;;;;;;;;5068363;28;20150;-89
2023/03/14 07:34:01;;;;;;;6.18;1.20;;;;;;;;;;5055805;28;20536;-88
2023/03/14 07:36:45;;;;;;;3.40;1.38;;;;;;;;;;5079988;28;20087;-88
2023/03/14 07:39:30;;;;;;;13.75;1.38;;;;;;;;;;5080835;28;20550;-88
2023/03/14 07:42:15;;;;;;;4.95;0.95;;;;;;;;;;5067004;28;20048;-90
2023/03/14 07:44:59;;;;;;;7.77;1.07;;;;;;;;;;5080960;28;20075;-88
2023/03/14 07:47:44;;;;;;;2.17;0.80;;;;;;;;;;5066764;28;20044;-89
2023/03/14 07:50:28;;;;;;;5.23;0.87;;;;;;;;;;5051536;28;20079;-89
2023/03/14 07:53:13;;;;;;;4.03;1.20;;;;;;;;;;5067012;28;20130;-89
2023/03/14 07:55:57;;;;;;;7.07;1.00;;;;;;;;;;5053664;28;20151;-88
2023/03/14 07:58:42;;;;;;;4.33;0.90;;;;;;;;;;5052338;28;20110;-90
2023/03/14 08:01:26;;;;;;;9.67;2.50;;;;;;;;;;5066509;28;20044;-89
2023/03/14 08:04:11;;;;;;;5.93;1.33;;;;;;;;;;5066614;28;20044;-89
2023/03/14 08:06:55;;;;;;;3.27;0.97;;;;;;;;;;5080809;28;20078;-90
2023/03/14 08:09:40;;;;;;;3.13;0.70;;;;;;;;;;5051928;28;20036;-90
2023/03/14 08:12:24;;;;;;;6.20;0.77;;;;;;;;;;5051971;28;20056;-89
2023/03/14 08:15:09;;;;;;;1.60;0.73;;;;;;;;;;5066493;28;20051;-88
2023/03/14 08:17:54;;;;;;;4.67;0.87;;;4.70;99.90;;;;;;5052383;28;20060;-89
2023/03/14 08:20:39;;;;;;;3.50;0.77;;;;;;;;;;5037993;28;20055;-89
2023/03/14 08:23:23;;;;;;;3.60;0.87;;;;;;;;;;5052069;28;20126;-90
2023/03/14 08:26:08;;;;;;;5.53;1.10;;;;;;;;;;5080615;28;20509;-90
2023/03/14 08:28:53;;;;;;;5.73;1.33;;;;;;;;;;5055888;28;20111;-90
2023/03/14 08:31:37;;;;;;;3.73;0.70;;;;;;;;;;5060246;28;20167;-89
2023/03/14 08:34:22;;;;;;;4.20;0.90;;;;;;;;;;5076613;28;20504;-89
2023/03/14 08:37:07;;;;;;;3.93;0.97;;;;;;;;;;5080371;28;20051;-90
2023/03/14 08:39:51;;;;;;;4.17;0.90;;;;;;;;;;5055663;28;20514;-89
2023/03/14 08:42:41;;;;;;;4.37;0.83;;;5.00;99.90;;;;;;5055430;28;20122;-89
2023/03/14 08:45:25;;;;;;;5.20;1.10;;;;;;;;;;5057898;28;20098;-91
2023/03/14 08:48:10;;;;;;;4.93;1.07;;;;;;;;;;5052263;28;20048;-91
2023/03/14 08:50:54;;;;;;;7.20;1.53;;;;;;;;;;5063204;28;20397;-92
2023/03/14 08:53:39;;;;;;;6.77;0.93;;;;;;;;;;5069150;28;20098;-92
2023/03/14 08:56:23;;;;;;;5.13;1.00;;;;;;;;;;5051576;28;20049;-91
2023/03/14 08:59:10;;;;;;;7.33;1.20;;;5.40;99.90;;;;;;5076360;28;20404;-88
2023/03/14 09:01:54;;;;;;;10.23;1.97;;;5.70;99.90;;;;;;5088313;28;20063;-88
2023/03/14 09:04:39;;;;;;;10.35;1.40;;;;;;;;;;5051794;28;20495;-89
2023/03/14 09:07:23;;;;;;;12.30;2.10;;;;;;;;;;5056894;28;20140;-89
2023/03/14 09:10:09;;;;;;;18.50;2.30;;;5.00;99.90;;;;;;5065412;28;20060;-89
2023/03/14 09:12:54;;;;;;;10.50;1.73;;;;;;;;;;5064707;28;20064;-88
2023/03/14 09:15:38;;;;;;;18.48;2.47;;;;;;;;;;5079028;28;20044;-90
2023/03/14 09:18:23;;;;;;;8.70;2.38;;;;;;;;;;5051879;28;20063;-90
2023/03/14 09:21:07;;;;;;;10.23;2.03;;;;;;;;;;5047035;28;20036;-89
2023/03/14 09:23:52;;;;;;;20.85;4.25;;;;;;;;;;5064813;28;20604;-91
2023/03/14 09:26:37;;;;;;;19.08;2.67;;;;;;;;;;5050816;28;20040;-92
2023/03/14 09:29:22;;;;;;;15.13;2.30;;;;;;;;;;5058324;28;20036;-89
2023/03/14 09:32:06;;;;;;;24.17;3.83;;;;;;;;;;5051899;28;20068;-90
2023/03/14 09:34:51;;;;;;;19.17;2.90;;;;;;;;;;5053905;28;20451;-89
2023/03/14 09:37:35;;;;;;;19.80;2.45;;;;;;;;;;5078944;28;20071;-90
2023/03/14 09:40:20;;;;;;;36.50;5.65;;;;;;;;;;5065081;28;20452;-90
2023/03/14 09:43:05;;;;;;;23.85;3.63;;;6.10;99.90;;;;;;5046295;28;20044;-89
2023/03/14 09:45:50;;;;;;;24.00;2.92;;;6.10;99.90;;;;;;5064650;28;20044;-89
2023/03/14 09:48:35;;;;;;;21.35;3.92;;;;;;;;;;5079270;28;20091;-86
2023/03/14 09:51:23;;;;;;;16.85;3.30;;;6.00;99.90;;;;;;5067713;28;20521;-87
2023/03/14 09:54:31;;;;;;;15.27;3.33;;;6.00;99.90;;;;;;5051808;28;20043;-87
2023/03/14 09:57:18;;;;;;;18.75;4.20;;;6.10;99.90;;;;;;5079281;28;20506;-89
2023/03/14 10:00:13;;;;;;;16.27;3.63;;;6.00;99.90;;;;;;5061190;28;20036;-88
2023/03/14 10:03:20;;;;;;;20.42;4.28;;;6.10;99.90;;;;;;5052708;28;20283;-88
2023/03/14 10:06:12;;;;;;;17.23;3.05;;;6.00;99.90;;;;;;5050556;28;20112;-88
2023/03/14 10:08:57;;;;;;;22.45;4.30;;;;;;;;;;5051213;28;20051;-88
2023/03/14 10:11:42;;;;;;;20.52;3.30;;;;;;;;;;5051450;28;20044;-88
2023/03/14 10:14:32;;;;;;;15.05;3.17;;;6.50;99.90;;;;;;5051268;28;20122;-89
2023/03/14 10:17:18;;;;;;;20.90;3.97;;;6.30;99.90;;;;;;5050773;28;20036;-88
2023/03/14 10:20:03;;;;;;;14.77;3.93;;;;;;;;;;5052660;28;20067;-89
2023/03/14 10:22:50;;;;;;;14.68;2.75;;;6.20;99.90;;;;;;5050886;28;20063;-88
2023/03/14 10:25:36;;;;;;;18.88;2.95;;;6.20;99.90;;;;;;5051516;28;20087;-87
2023/03/14 10:28:30;;;;;;;18.92;3.05;;;6.30;99.90;;;;;;5049648;28;20055;-87
2023/03/14 10:31:15;;;;;;;17.58;2.97;;;;;;;;;;5054800;28;20155;-88
2023/03/14 10:34:04;;;;;;;21.02;3.40;;;6.20;99.90;;;;;;5053800;28;20116;-87
2023/03/14 10:36:54;;;;;;;16.60;4.68;;;6.20;99.90;;;;;;5053466;28;20091;-90
2023/03/14 10:39:47;;;;;;;21.90;3.70;;;6.40;99.90;;;;;;5053817;28;20044;-89
2023/03/14 10:42:39;;;;;;;18.65;3.80;;;6.40;99.90;;;;;;5053992;28;20056;-88
2023/03/14 10:45:45;;;;;;;19.15;2.67;;;6.50;99.90;;;;;;5053464;28;20039;-88
2023/03/14 10:48:34;;;;;;;10.55;3.08;;;6.30;99.90;;;;;;5054789;28;20028;-88
2023/03/14 10:51:24;;;;;;;16.20;2.50;;;9.80;99.90;;;;;;5041980;28;20086;-88
2023/03/14 10:54:35;;;;;;;12.07;3.00;;;6.60;99.90;;;;;;5052145;28;20091;-90
2023/03/14 10:57:20;;;;;;;26.80;3.30;;;;;;;;;;5054550;28;20386;-92
2023/03/14 11:00:14;;;;;;;16.27;4.18;;;6.80;99.90;;;;;;5054358;28;20539;-90
2023/03/14 11:03:20;;;;;;;;;;;6.80;99.90;;;;;;5082748;28;20053;-93
2023/03/14 11:06:12;;;;;;;17.23;2.22;;;7.00;99.90;;;;;;5053034;28;19916;-89
2023/03/14 11:08:57;;;;;;;12.70;2.60;;;;;;;;;;5081797;28;20086;-88
2023/03/14 11:11:47;;;;;;;12.18;2.25;;;7.20;99.90;;;;;;5086845;28;20128;-91
2023/03/14 11:14:43;;;;;;;19.02;2.38;;;7.20;99.90;;;;;;5057108;28;20056;-88
2023/03/14 11:17:38;;;;;;;10.68;2.00;;;7.10;99.90;;;;;;5054343;28;20086;-90
2023/03/14 11:20:47;;;;;;;12.40;2.53;;;7.10;99.90;;;;;;5070780;28;20055;-90
2023/03/14 11:24:01;;;;;;;12.23;1.85;;;7.30;99.90;;;;;;5049185;28;20110;-89
2023/03/14 11:26:46;;;;;;;10.65;1.70;;;;;;;;;;5057948;28;20112;-87
2023/03/14 11:29:30;;;;;;;8.70;1.90;;;;;;;;;;5072209;28;20109;-89
2023/03/14 11:33:01;;;;;;;9.77;1.85;;;7.70;99.90;;;;;;5064212;28;20059;-88
2023/03/14 11:35:46;;;;;;;20.80;2.50;;;;;;;;;;5040671;28;20048;-89
2023/03/14 11:38:31;;;;;;;11.70;2.65;;;;;;;;;;5054586;28;20047;-89
2023/03/14 11:41:29;;;;;;;21.83;2.97;;;7.60;99.90;;;;;;5060496;28;20063;-88
2023/03/14 11:44:28;;;;;;;10.55;1.98;;;7.50;99.90;;;;;;5050634;28;20036;-88
2023/03/14 11:47:32;;;;;;;12.45;1.92;;;7.30;99.90;;;;;;5052637;28;20036;-88
2023/03/14 11:50:24;;;;;;;10.85;1.65;;;7.30;99.90;;;;;;5050242;28;20549;-89
2023/03/14 11:53:44;;;;;;;8.10;1.63;;;7.40;99.90;;;;;;5078839;28;20446;-89
2023/03/14 11:56:50;;;;;;;6.55;1.55;;;7.60;99.90;;;;;;5045005;28;20508;-88
2023/03/14 11:59:59;;;;;;;7.88;1.75;;;7.70;99.90;;;;;;5052286;28;20129;-89
2023/03/14 12:02:54;;;;;;;10.90;2.38;;;7.70;99.90;;;;;;5059753;28;20491;-88
2023/03/14 12:06:01;;;;;;;9.80;1.88;;;7.60;99.90;;;;;;5051770;28;20124;-87
2023/03/14 12:08:57;;;;;;;10.98;3.00;;;7.60;99.90;;;;;;5043720;28;20031;-89
2023/03/14 12:11:48;;;;;;;12.00;2.22;;;7.80;99.90;;;;;;5079903;28;20094;-88
2023/03/14 12:14:35;;;;;;;9.80;1.58;;;8.10;99.90;;;;;;5052236;28;20402;-88
2023/03/14 12:17:20;;;;;;;7.93;1.55;;;;;;;;;;5051370;28;20453;-88
2023/03/14 12:20:06;;;;;;;11.55;1.83;;;;;;;;;;5053309;28;20040;-87
2023/03/14 12:22:58;;;;;;;12.38;1.73;;;8.50;99.90;;;;;;5048788;28;20032;-89
2023/03/14 12:25:43;;;;;;;8.98;1.70;;;;;;;;;;5052247;28;20052;-87
2023/03/14 12:28:32;;;;;;;8.23;1.60;;;8.20;99.90;;;;;;5068179;28;20109;-87
2023/03/14 12:31:30;;;;;;;4.78;1.48;;;;;;;;;;5067159;28;20279;-88
2023/03/14 12:34:14;;;;;;;8.77;1.63;;;;;;;;;;5053866;28;20508;-87
2023/03/14 12:37:29;;;;;;;6.32;1.40;;;8.10;99.90;;;;;;5074180;28;20032;-91
2023/03/14 12:40:14;;;;;;;13.20;1.83;;;;;;;;;;5044691;28;20106;-89
2023/03/14 12:43:18;;;;;;;10.75;2.28;;;8.40;99.90;;;;;;5052850;28;20051;-88
2023/03/14 12:46:18;;;;;;;8.50;1.88;;;8.40;99.90;;;;;;5045194;28;20040;-87
2023/03/14 12:49:03;;;;;;;7.65;1.95;;;;;;;;;;5050342;28;20067;-88
2023/03/14 12:51:47;;;;;;;9.80;1.98;;;;;;;;;;5050424;28;20103;-88
2023/03/14 12:55:01;;;;;;;7.10;1.83;;;7.70;99.90;;;;;;5056026;28;20451;-89
2023/03/14 12:57:59;;;;;;;11.15;2.00;;;7.40;99.90;;;;;;5076754;28;20237;-88
2023/03/14 13:00:44;;;;;;;8.90;2.33;;;;;;;;;;5049258;28;20416;-89
2023/03/14 13:04:09;;;;;;;10.95;2.47;;;;;;;;;;5051075;28;20401;-90
2023/03/14 13:06:59;;;;;;;11.32;1.85;;;8.00;99.90;;;;;;5039241;28;20072;-87
2023/03/14 13:09:56;;;;;;;10.43;2.13;;;8.20;99.90;;;;;;5030620;28;20040;-90
2023/03/14 13:13:02;;;;;;;10.32;1.80;;;8.40;99.90;;;;;;5044859;28;20056;-88
2023/03/14 13:15:53;;;;;;;9.88;2.10;;;8.60;99.90;;;;;;5044717;28;20052;-89
2023/03/14 13:18:37;;;;;;;8.05;1.95;;;;;;;;;;5050388;28;20056;-89
2023/03/14 13:21:26;;;;;;;7.65;1.90;;;8.80;99.90;;;;;;5049871;28;20102;-89
2023/03/14 13:24:25;;;;;;;5.45;1.70;;;8.50;99.90;;;;;;5042856;28;20036;-90
2023/03/14 13:27:17;;;;;;;9.80;2.58;;;;;;;;;;5055288;28;20392;-88
2023/03/14 13:30:22;;;;;;;15.82;1.88;;;;;;;;;;5048618;28;20082;-89
2023/03/14 13:33:25;;;;;;;6.32;1.48;;;;;;;;;;5054567;28;20051;-90
2023/03/14 13:36:09;;;;;;;7.95;1.65;;;;;;;;;;5067270;28;20219;-88
2023/03/14 13:39:02;;;;;;;10.40;1.70;;;7.60;99.90;;;;;;5047411;28;20124;-90
2023/03/14 13:41:52;;;;;;;8.77;1.33;;;;;;;;;;5060778;28;20499;-90
2023/03/14 13:44:43;;;;;;;5.65;1.50;;;7.60;99.90;;;;;;5047575;28;20035;-91
2023/03/14 13:47:29;;;;;;;7.28;1.17;;;;;;;;;;5061760;28;20103;-89
2023/03/14 13:50:20;;;;;;;7.13;1.85;;;;;;;;;;5052045;28;20098;-88
2023/03/14 13:53:05;;;;;;;9.57;1.52;;;;;;;;;;5051384;28;20036;-88
2023/03/14 13:55:51;;;;;;;6.90;1.50;;;8.00;99.90;;;;;;5055120;28;20048;-89
2023/03/14 13:58:38;;;;;;;6.85;1.25;;;8.10;99.90;;;;;;5061451;28;20039;-88
2023/03/14 14:01:24;;;;;;;12.48;1.70;;;8.10;99.90;;;;;;5056923;28;20083;-88
2023/03/14 14:04:15;;;;;;;6.47;1.95;;;8.10;99.90;;;;;;5064504;28;20044;-90
2023/03/14 14:07:06;;;;;;;5.63;1.25;;;7.90;99.90;;;;;;5066376;28;20086;-89
2023/03/14 14:09:53;;;;;;;12.02;2.05;;;7.60;99.90;;;;;;5050010;28;20428;-90
2023/03/14 14:12:55;;;;;;;6.95;1.63;;;7.50;99.90;;;;;;5052312;28;20055;-90
2023/03/14 14:15:46;;;;;;;8.40;1.80;;;7.30;99.90;;;;;;5070635;28;20097;-90
2023/03/14 14:18:33;;;;;;;6.13;2.10;;;7.20;99.90;;;;;;5056759;28;20488;-89
2023/03/14 14:21:18;;;;;;;7.50;1.63;;;;;;;;;;5056272;28;20121;-89
2023/03/14 14:24:06;;;;;;;4.57;1.27;;;;;;;;;;5040298;28;20044;-90
2023/03/14 14:26:55;;;;;;;5.32;1.30;;;6.80;99.90;;;;;;5050425;28;20036;-89
2023/03/14 14:29:45;;;;;;;6.38;1.30;;;;;;;;;;5067192;28;20071;-91
2023/03/14 14:32:38;;;;;;;11.00;2.95;;;7.00;99.90;;;;;;5045690;28;20091;-88
2023/03/14 14:35:32;;;;;;;10.85;1.48;;;6.90;99.90;;;;;;5069415;28;20120;-89
2023/03/14 14:38:19;;;;;;;;;;;7.00;99.90;;;;;;5055449;28;20503;-89
2023/03/14 14:41:04;;;;;;;7.95;1.40;;;;;;;;;;5042743;28;20375;-90
2023/03/14 14:43:52;;;;;;;9.13;1.70;;;7.10;99.90;;;;;;5029709;28;20070;-90
2023/03/14 14:46:37;;;;;;;15.07;2.25;;;;;;;;;;5061033;28;20170;-91
2023/03/14 14:49:52;;;;;;;13.85;2.42;;;7.00;99.90;;;;;;5054149;28;20076;-94
2023/03/14 14:52:39;;;;;;;;;;;7.00;98.80;;;;;;5087818;28;20196;-89
2023/03/14 14:55:29;;;;;;;8.02;3.42;;;;;;;;;;5080767;28;19925;-90
2023/03/14 14:58:38;;;;;;;;;;;;;;;;;;;;;
2023/03/14 15:01:54;;;;;;;;;;;;;;;;;;;;;
2023/03/14 15:04:43;;;;;;;10.77;1.77;;;;;;;;;;5041387;28;20039;-93
2023/03/14 15:08:10;;;;;;;6.97;1.88;;;;;;;;;;5040779;28;20040;-90
2023/03/14 15:10:56;;;;;;;13.93;2.05;;;6.50;99.90;;;;;;5056964;28;20048;-91
2023/03/14 15:13:41;;;;;;;10.25;1.63;;;;;;;;;;5056982;28;20504;-91
2023/03/14 15:16:35;;;;;;;11.02;1.88;;;;;;;;;;5052491;28;20063;-94
2023/03/14 15:19:25;;;;;;;6.80;1.45;;;6.90;99.90;;;;;;5054867;28;20048;-91
2023/03/14 15:22:13;;;;;;;6.00;1.25;;;7.00;99.90;;;;;;5057894;28;20039;-90
2023/03/14 15:24:58;;;;;;;7.22;1.60;;;;;;;;;;5045090;28;20036;-88
2023/03/14 15:27:43;;;;;;;12.38;1.95;;;;;;;;;;5055966;28;20574;-90
2023/03/14 15:30:28;;;;;;;12.75;2.45;;;;;;;;;;5048743;28;20090;-90
2023/03/14 15:33:13;;;;;;;7.00;2.15;;;;;;;;;;5054002;28;20443;-88
2023/03/14 15:35:57;;;;;;;11.25;1.75;;;;;;;;;;5053646;28;20044;-90
2023/03/14 15:38:42;;;;;;;8.43;1.83;;;;;;;;;;5050405;28;20114;-90
2023/03/14 15:41:34;;;;;;;9.02;1.67;;;;;;;;;;5051627;28;20040;-90
2023/03/14 15:44:19;;;;;;;12.15;2.42;;;;;;;;;;5050518;28;20091;-89
2023/03/14 15:47:04;;;;;;;10.15;2.65;;;;;;;;;;5057428;28;20043;-89
2023/03/14 15:49:51;;;;;;;7.55;1.40;;;;;;;;;;5033328;28;20095;-91
2023/03/14 15:52:36;;;;;;;9.25;1.83;;;;;;;;;;5053435;28;20063;-88
2023/03/14 15:55:20;;;;;;;6.55;1.65;;;;;;;;;;5055145;28;20039;-88
2023/03/14 15:58:05;;;;;;;6.40;1.80;;;;;;;;;;5046032;28;20048;-90
2023/03/14 16:00:52;;;;;;;9.52;1.52;;;6.40;99.90;;;;;;5053488;28;20040;-87